sensor_id;sensor_type;location;lat;lon;timestamp;P1;durP1;ratioP1;P2;durP2;ratioP2
27847;SDS011;15212;48.830;8.730;2024-01-25T00:00:29;31.60;;;5.10;;
27847;SDS011;15212;48.830;8.730;2024-01-25T00:02:57;32.38;;;4.58;;
27847;SDS011;15212;48.830;8.730;2024-01-25T00:05:26;33.33;;;4.75;;
27847;SDS011;15212;48.830;8.730;2024-01-25T00:07:54;30.77;;;4.55;;
27847;SDS011;15212;48.830;8.730;2024-01-25T00:10:22;33.98;;;4.55;;
27847;SDS011;15212;48.830;8.730;2024-01-25T00:12:51;32.78;;;4.70;;
27847;SDS011;15212;48.830;8.730;2024-01-25T00:15:20;36.77;;;5.45;;
27847;SDS011;15212;48.830;8.730;2024-01-25T00:17:48;28.60;;;4.53;;
27847;SDS011;15212;48.830;8.730;2024-01-25T00:20:16;30.52;;;4.22;;
27847;SDS011;15212;48.830;8.730;2024-01-25T00:22:45;49.77;;;4.85;;
27847;SDS011;15212;48.830;8.730;2024-01-25T00:25:13;27.75;;;4.12;;
27847;SDS011;15212;48.830;8.730;2024-01-25T00:27:42;31.93;;;4.67;;
27847;SDS011;15212;48.830;8.730;2024-01-25T00:30:10;32.25;;;4.37;;
27847;SDS011;15212;48.830;8.730;2024-01-25T00:32:39;46.50;;;4.85;;
27847;SDS011;15212;48.830;8.730;2024-01-25T00:35:09;38.90;;;4.30;;
27847;SDS011;15212;48.830;8.730;2024-01-25T00:37:39;41.05;;;4.83;;
27847;SDS011;15212;48.830;8.730;2024-01-25T00:40:08;31.60;;;4.70;;
27847;SDS011;15212;48.830;8.730;2024-01-25T00:42:43;29.48;;;4.53;;
27847;SDS011;15212;48.830;8.730;2024-01-25T00:45:14;36.42;;;4.12;;
27847;SDS011;15212;48.830;8.730;2024-01-25T00:47:43;39.15;;;4.45;;
27847;SDS011;15212;48.830;8.730;2024-01-25T00:50:12;34.43;;;4.20;;
27847;SDS011;15212;48.830;8.730;2024-01-25T00:52:43;36.65;;;4.78;;
27847;SDS011;15212;48.830;8.730;2024-01-25T00:55:12;35.17;;;4.60;;
27847;SDS011;15212;48.830;8.730;2024-01-25T00:57:42;40.63;;;4.72;;
27847;SDS011;15212;48.830;8.730;2024-01-25T01:00:11;26.70;;;4.20;;
27847;SDS011;15212;48.830;8.730;2024-01-25T01:02:41;30.77;;;4.05;;
27847;SDS011;15212;48.830;8.730;2024-01-25T01:05:11;30.52;;;3.70;;
27847;SDS011;15212;48.830;8.730;2024-01-25T01:07:41;40.88;;;4.78;;
27847;SDS011;15212;48.830;8.730;2024-01-25T01:10:10;25.23;;;3.67;;
27847;SDS011;15212;48.830;8.730;2024-01-25T01:12:40;29.35;;;3.85;;
27847;SDS011;15212;48.830;8.730;2024-01-25T01:15:08;27.55;;;4.35;;
27847;SDS011;15212;48.830;8.730;2024-01-25T01:17:37;29.05;;;4.05;;
27847;SDS011;15212;48.830;8.730;2024-01-25T01:20:05;35.95;;;3.60;;
27847;SDS011;15212;48.830;8.730;2024-01-25T01:22:34;32.38;;;4.33;;
27847;SDS011;15212;48.830;8.730;2024-01-25T01:25:03;36.70;;;4.50;;
27847;SDS011;15212;48.830;8.730;2024-01-25T01:27:32;32.15;;;4.03;;
27847;SDS011;15212;48.830;8.730;2024-01-25T01:30:00;31.55;;;4.10;;
27847;SDS011;15212;48.830;8.730;2024-01-25T01:32:29;26.77;;;4.70;;
27847;SDS011;15212;48.830;8.730;2024-01-25T01:34:57;31.57;;;4.75;;
27847;SDS011;15212;48.830;8.730;2024-01-25T01:37:26;28.02;;;4.47;;
27847;SDS011;15212;48.830;8.730;2024-01-25T01:39:54;35.68;;;4.37;;
27847;SDS011;15212;48.830;8.730;2024-01-25T01:42:24;32.98;;;4.22;;
27847;SDS011;15212;48.830;8.730;2024-01-25T01:44:54;23.05;;;3.85;;
27847;SDS011;15212;48.830;8.730;2024-01-25T01:47:23;34.35;;;4.35;;
27847;SDS011;15212;48.830;8.730;2024-01-25T01:49:52;30.95;;;3.85;;
27847;SDS011;15212;48.830;8.730;2024-01-25T01:52:21;27.00;;;3.92;;
27847;SDS011;15212;48.830;8.730;2024-01-25T01:54:49;45.55;;;4.72;;
27847;SDS011;15212;48.830;8.730;2024-01-25T01:57:18;36.35;;;4.42;;
27847;SDS011;15212;48.830;8.730;2024-01-25T01:59:47;40.28;;;4.47;;
27847;SDS011;15212;48.830;8.730;2024-01-25T02:02:16;27.25;;;4.35;;
27847;SDS011;15212;48.830;8.730;2024-01-25T02:04:44;33.83;;;4.58;;
27847;SDS011;15212;48.830;8.730;2024-01-25T02:07:12;41.53;;;4.75;;
27847;SDS011;15212;48.830;8.730;2024-01-25T02:09:41;34.05;;;3.95;;
27847;SDS011;15212;48.830;8.730;2024-01-25T02:12:09;26.17;;;4.83;;
27847;SDS011;15212;48.830;8.730;2024-01-25T02:14:38;41.73;;;4.42;;
27847;SDS011;15212;48.830;8.730;2024-01-25T02:17:06;32.63;;;4.72;;
27847;SDS011;15212;48.830;8.730;2024-01-25T02:19:35;29.32;;;4.28;;
27847;SDS011;15212;48.830;8.730;2024-01-25T02:22:04;27.93;;;3.80;;
27847;SDS011;15212;48.830;8.730;2024-01-25T02:24:33;34.43;;;4.42;;
27847;SDS011;15212;48.830;8.730;2024-01-25T02:27:01;36.00;;;4.45;;
27847;SDS011;15212;48.830;8.730;2024-01-25T02:29:31;25.70;;;3.50;;
27847;SDS011;15212;48.830;8.730;2024-01-25T02:31:59;22.62;;;3.70;;
27847;SDS011;15212;48.830;8.730;2024-01-25T02:34:27;24.82;;;3.92;;
27847;SDS011;15212;48.830;8.730;2024-01-25T02:36:56;32.23;;;4.15;;
27847;SDS011;15212;48.830;8.730;2024-01-25T02:39:24;34.65;;;4.30;;
27847;SDS011;15212;48.830;8.730;2024-01-25T02:41:52;23.62;;;3.92;;
27847;SDS011;15212;48.830;8.730;2024-01-25T02:44:21;25.60;;;4.20;;
27847;SDS011;15212;48.830;8.730;2024-01-25T02:46:49;27.62;;;3.47;;
27847;SDS011;15212;48.830;8.730;2024-01-25T02:49:18;27.05;;;3.90;;
27847;SDS011;15212;48.830;8.730;2024-01-25T02:51:46;38.80;;;4.53;;
27847;SDS011;15212;48.830;8.730;2024-01-25T02:54:15;34.25;;;4.17;;
27847;SDS011;15212;48.830;8.730;2024-01-25T02:56:43;32.20;;;3.87;;
27847;SDS011;15212;48.830;8.730;2024-01-25T02:59:11;33.33;;;4.28;;
27847;SDS011;15212;48.830;8.730;2024-01-25T03:01:40;29.10;;;3.47;;
27847;SDS011;15212;48.830;8.730;2024-01-25T03:04:10;32.65;;;4.25;;
27847;SDS011;15212;48.830;8.730;2024-01-25T03:06:39;26.23;;;3.58;;
27847;SDS011;15212;48.830;8.730;2024-01-25T03:09:08;42.38;;;4.12;;
27847;SDS011;15212;48.830;8.730;2024-01-25T03:11:36;35.20;;;4.47;;
27847;SDS011;15212;48.830;8.730;2024-01-25T03:14:04;33.20;;;3.98;;
27847;SDS011;15212;48.830;8.730;2024-01-25T03:16:33;30.27;;;4.05;;
27847;SDS011;15212;48.830;8.730;2024-01-25T03:19:01;34.30;;;4.65;;
27847;SDS011;15212;48.830;8.730;2024-01-25T03:21:29;26.05;;;3.67;;
27847;SDS011;15212;48.830;8.730;2024-01-25T03:23:58;37.78;;;4.10;;
27847;SDS011;15212;48.830;8.730;2024-01-25T03:26:27;27.48;;;3.65;;
27847;SDS011;15212;48.830;8.730;2024-01-25T03:28:55;29.02;;;4.15;;
27847;SDS011;15212;48.830;8.730;2024-01-25T03:31:23;29.32;;;4.55;;
27847;SDS011;15212;48.830;8.730;2024-01-25T03:33:52;28.77;;;3.87;;
27847;SDS011;15212;48.830;8.730;2024-01-25T03:36:20;31.90;;;3.95;;
27847;SDS011;15212;48.830;8.730;2024-01-25T03:38:49;26.12;;;3.92;;
27847;SDS011;15212;48.830;8.730;2024-01-25T03:41:17;31.27;;;3.80;;
27847;SDS011;15212;48.830;8.730;2024-01-25T03:43:46;24.43;;;3.27;;
27847;SDS011;15212;48.830;8.730;2024-01-25T03:46:14;28.55;;;3.85;;
27847;SDS011;15212;48.830;8.730;2024-01-25T03:48:42;30.20;;;4.05;;
27847;SDS011;15212;48.830;8.730;2024-01-25T03:51:11;28.12;;;4.00;;
27847;SDS011;15212;48.830;8.730;2024-01-25T03:53:39;31.15;;;4.12;;
27847;SDS011;15212;48.830;8.730;2024-01-25T03:56:12;34.30;;;3.98;;
27847;SDS011;15212;48.830;8.730;2024-01-25T03:58:42;40.38;;;4.55;;
27847;SDS011;15212;48.830;8.730;2024-01-25T04:01:12;31.97;;;4.42;;
27847;SDS011;15212;48.830;8.730;2024-01-25T04:03:40;31.65;;;4.17;;
27847;SDS011;15212;48.830;8.730;2024-01-25T04:06:09;35.03;;;4.87;;
27847;SDS011;15212;48.830;8.730;2024-01-25T04:08:37;35.15;;;4.42;;
27847;SDS011;15212;48.830;8.730;2024-01-25T04:11:05;31.10;;;4.17;;
27847;SDS011;15212;48.830;8.730;2024-01-25T04:13:35;37.17;;;4.80;;
27847;SDS011;15212;48.830;8.730;2024-01-25T04:16:04;31.10;;;4.53;;
27847;SDS011;15212;48.830;8.730;2024-01-25T04:18:32;33.15;;;4.08;;
27847;SDS011;15212;48.830;8.730;2024-01-25T04:21:01;34.60;;;5.03;;
27847;SDS011;15212;48.830;8.730;2024-01-25T04:23:30;29.25;;;4.60;;
27847;SDS011;15212;48.830;8.730;2024-01-25T04:25:58;34.85;;;4.42;;
27847;SDS011;15212;48.830;8.730;2024-01-25T04:28:26;31.48;;;4.00;;
27847;SDS011;15212;48.830;8.730;2024-01-25T04:30:55;35.95;;;4.25;;
27847;SDS011;15212;48.830;8.730;2024-01-25T04:33:23;37.88;;;5.05;;
27847;SDS011;15212;48.830;8.730;2024-01-25T04:35:52;30.35;;;4.17;;
27847;SDS011;15212;48.830;8.730;2024-01-25T04:38:21;39.53;;;4.00;;
27847;SDS011;15212;48.830;8.730;2024-01-25T04:40:49;32.40;;;4.53;;
27847;SDS011;15212;48.830;8.730;2024-01-25T04:43:17;43.65;;;4.53;;
27847;SDS011;15212;48.830;8.730;2024-01-25T04:45:46;43.23;;;5.00;;
27847;SDS011;15212;48.830;8.730;2024-01-25T04:48:14;32.95;;;4.45;;
27847;SDS011;15212;48.830;8.730;2024-01-25T04:50:43;39.05;;;5.65;;
27847;SDS011;15212;48.830;8.730;2024-01-25T04:53:11;34.18;;;4.65;;
27847;SDS011;15212;48.830;8.730;2024-01-25T04:55:39;34.55;;;4.78;;
27847;SDS011;15212;48.830;8.730;2024-01-25T04:58:08;39.05;;;6.08;;
27847;SDS011;15212;48.830;8.730;2024-01-25T05:00:37;42.10;;;4.85;;
27847;SDS011;15212;48.830;8.730;2024-01-25T05:03:05;47.45;;;5.17;;
27847;SDS011;15212;48.830;8.730;2024-01-25T05:05:34;36.20;;;5.17;;
27847;SDS011;15212;48.830;8.730;2024-01-25T05:08:02;36.33;;;4.75;;
27847;SDS011;15212;48.830;8.730;2024-01-25T05:10:31;38.00;;;4.45;;
27847;SDS011;15212;48.830;8.730;2024-01-25T05:12:59;37.75;;;4.90;;
27847;SDS011;15212;48.830;8.730;2024-01-25T05:15:27;38.70;;;5.05;;
27847;SDS011;15212;48.830;8.730;2024-01-25T05:17:56;37.80;;;4.65;;
27847;SDS011;15212;48.830;8.730;2024-01-25T05:20:24;38.45;;;5.20;;
27847;SDS011;15212;48.830;8.730;2024-01-25T05:22:54;28.35;;;4.00;;
27847;SDS011;15212;48.830;8.730;2024-01-25T05:25:23;37.65;;;4.95;;
27847;SDS011;15212;48.830;8.730;2024-01-25T05:27:53;46.77;;;5.15;;
27847;SDS011;15212;48.830;8.730;2024-01-25T05:30:23;36.25;;;4.80;;
27847;SDS011;15212;48.830;8.730;2024-01-25T05:32:53;35.70;;;4.90;;
27847;SDS011;15212;48.830;8.730;2024-01-25T05:35:22;33.42;;;4.60;;
27847;SDS011;15212;48.830;8.730;2024-01-25T05:37:51;28.60;;;3.98;;
27847;SDS011;15212;48.830;8.730;2024-01-25T05:40:19;39.80;;;5.25;;
27847;SDS011;15212;48.830;8.730;2024-01-25T05:42:48;42.40;;;5.15;;
27847;SDS011;15212;48.830;8.730;2024-01-25T05:45:16;37.38;;;4.65;;
27847;SDS011;15212;48.830;8.730;2024-01-25T05:47:46;28.70;;;4.50;;
27847;SDS011;15212;48.830;8.730;2024-01-25T05:50:15;37.48;;;5.00;;
27847;SDS011;15212;48.830;8.730;2024-01-25T05:52:45;49.75;;;6.10;;
27847;SDS011;15212;48.830;8.730;2024-01-25T05:55:14;36.13;;;5.08;;
27847;SDS011;15212;48.830;8.730;2024-01-25T05:57:43;39.40;;;5.53;;
27847;SDS011;15212;48.830;8.730;2024-01-25T06:00:12;34.08;;;4.67;;
27847;SDS011;15212;48.830;8.730;2024-01-25T06:02:41;33.20;;;4.65;;
27847;SDS011;15212;48.830;8.730;2024-01-25T06:05:11;39.95;;;5.60;;
27847;SDS011;15212;48.830;8.730;2024-01-25T06:07:39;40.70;;;5.37;;
27847;SDS011;15212;48.830;8.730;2024-01-25T06:10:08;36.58;;;4.45;;
27847;SDS011;15212;48.830;8.730;2024-01-25T06:12:37;32.53;;;4.80;;
27847;SDS011;15212;48.830;8.730;2024-01-25T06:15:06;39.83;;;5.20;;
27847;SDS011;15212;48.830;8.730;2024-01-25T06:17:35;38.98;;;4.50;;
27847;SDS011;15212;48.830;8.730;2024-01-25T06:20:03;39.03;;;4.97;;
27847;SDS011;15212;48.830;8.730;2024-01-25T06:22:32;36.45;;;4.40;;
27847;SDS011;15212;48.830;8.730;2024-01-25T06:25:01;44.65;;;4.75;;
27847;SDS011;15212;48.830;8.730;2024-01-25T06:27:30;44.00;;;5.62;;
27847;SDS011;15212;48.830;8.730;2024-01-25T06:29:58;42.23;;;5.55;;
27847;SDS011;15212;48.830;8.730;2024-01-25T06:32:27;40.15;;;5.35;;
27847;SDS011;15212;48.830;8.730;2024-01-25T06:34:55;39.48;;;5.33;;
27847;SDS011;15212;48.830;8.730;2024-01-25T06:37:24;43.08;;;5.62;;
27847;SDS011;15212;48.830;8.730;2024-01-25T06:39:52;35.33;;;4.62;;
27847;SDS011;15212;48.830;8.730;2024-01-25T06:42:20;30.77;;;4.22;;
27847;SDS011;15212;48.830;8.730;2024-01-25T06:44:49;32.00;;;4.50;;
27847;SDS011;15212;48.830;8.730;2024-01-25T06:47:17;36.58;;;4.78;;
27847;SDS011;15212;48.830;8.730;2024-01-25T06:49:45;39.78;;;5.15;;
27847;SDS011;15212;48.830;8.730;2024-01-25T06:52:15;47.10;;;5.45;;
27847;SDS011;15212;48.830;8.730;2024-01-25T06:54:45;39.08;;;5.67;;
27847;SDS011;15212;48.830;8.730;2024-01-25T06:57:13;37.95;;;5.60;;
27847;SDS011;15212;48.830;8.730;2024-01-25T06:59:41;40.35;;;5.22;;
27847;SDS011;15212;48.830;8.730;2024-01-25T07:02:10;41.92;;;5.90;;
27847;SDS011;15212;48.830;8.730;2024-01-25T07:04:38;43.55;;;4.87;;
27847;SDS011;15212;48.830;8.730;2024-01-25T07:07:06;46.63;;;4.97;;
27847;SDS011;15212;48.830;8.730;2024-01-25T07:09:35;38.02;;;4.35;;
27847;SDS011;15212;48.830;8.730;2024-01-25T07:12:04;31.42;;;4.55;;
27847;SDS011;15212;48.830;8.730;2024-01-25T07:14:33;37.42;;;4.08;;
27847;SDS011;15212;48.830;8.730;2024-01-25T07:17:01;33.63;;;4.58;;
27847;SDS011;15212;48.830;8.730;2024-01-25T07:19:30;42.60;;;5.25;;
27847;SDS011;15212;48.830;8.730;2024-01-25T07:21:58;36.80;;;4.45;;
27847;SDS011;15212;48.830;8.730;2024-01-25T07:24:26;33.53;;;4.35;;
27847;SDS011;15212;48.830;8.730;2024-01-25T07:26:55;37.93;;;4.55;;
27847;SDS011;15212;48.830;8.730;2024-01-25T07:29:23;35.90;;;4.62;;
27847;SDS011;15212;48.830;8.730;2024-01-25T07:31:52;37.05;;;4.70;;
27847;SDS011;15212;48.830;8.730;2024-01-25T07:34:20;37.28;;;4.87;;
27847;SDS011;15212;48.830;8.730;2024-01-25T07:36:48;31.27;;;5.12;;
27847;SDS011;15212;48.830;8.730;2024-01-25T07:39:17;33.65;;;4.22;;
27847;SDS011;15212;48.830;8.730;2024-01-25T07:41:45;38.42;;;4.65;;
27847;SDS011;15212;48.830;8.730;2024-01-25T07:44:14;31.50;;;4.20;;
27847;SDS011;15212;48.830;8.730;2024-01-25T07:46:42;36.13;;;4.90;;
27847;SDS011;15212;48.830;8.730;2024-01-25T07:49:11;30.90;;;4.20;;
27847;SDS011;15212;48.830;8.730;2024-01-25T07:51:39;37.28;;;4.47;;
27847;SDS011;15212;48.830;8.730;2024-01-25T07:54:08;40.70;;;6.25;;
27847;SDS011;15212;48.830;8.730;2024-01-25T07:56:37;34.80;;;4.55;;
27847;SDS011;15212;48.830;8.730;2024-01-25T07:59:05;40.25;;;4.58;;
27847;SDS011;15212;48.830;8.730;2024-01-25T08:01:34;34.65;;;5.37;;
27847;SDS011;15212;48.830;8.730;2024-01-25T08:04:02;42.08;;;5.22;;
27847;SDS011;15212;48.830;8.730;2024-01-25T08:06:31;37.83;;;5.25;;
27847;SDS011;15212;48.830;8.730;2024-01-25T08:08:59;35.45;;;4.60;;
27847;SDS011;15212;48.830;8.730;2024-01-25T08:11:28;28.02;;;4.25;;
27847;SDS011;15212;48.830;8.730;2024-01-25T08:13:57;27.80;;;4.50;;
27847;SDS011;15212;48.830;8.730;2024-01-25T08:16:25;37.88;;;5.17;;
27847;SDS011;15212;48.830;8.730;2024-01-25T08:18:54;36.45;;;4.30;;
27847;SDS011;15212;48.830;8.730;2024-01-25T08:21:22;27.62;;;4.45;;
27847;SDS011;15212;48.830;8.730;2024-01-25T08:23:50;30.95;;;4.67;;
27847;SDS011;15212;48.830;8.730;2024-01-25T08:26:19;32.53;;;4.47;;
27847;SDS011;15212;48.830;8.730;2024-01-25T08:28:47;32.88;;;4.15;;
27847;SDS011;15212;48.830;8.730;2024-01-25T08:31:16;39.60;;;5.00;;
27847;SDS011;15212;48.830;8.730;2024-01-25T08:33:44;28.20;;;4.33;;
27847;SDS011;15212;48.830;8.730;2024-01-25T08:36:16;29.63;;;4.70;;
27847;SDS011;15212;48.830;8.730;2024-01-25T08:38:46;37.25;;;4.62;;
27847;SDS011;15212;48.830;8.730;2024-01-25T08:41:15;41.63;;;4.70;;
27847;SDS011;15212;48.830;8.730;2024-01-25T08:43:43;32.88;;;4.70;;
27847;SDS011;15212;48.830;8.730;2024-01-25T08:46:13;32.05;;;4.45;;
27847;SDS011;15212;48.830;8.730;2024-01-25T08:48:42;25.92;;;4.30;;
27847;SDS011;15212;48.830;8.730;2024-01-25T08:51:10;28.38;;;4.15;;
27847;SDS011;15212;48.830;8.730;2024-01-25T08:53:39;32.85;;;4.60;;
27847;SDS011;15212;48.830;8.730;2024-01-25T08:56:08;30.48;;;4.60;;
27847;SDS011;15212;48.830;8.730;2024-01-25T08:58:36;35.20;;;4.22;;
27847;SDS011;15212;48.830;8.730;2024-01-25T09:01:04;29.77;;;4.50;;
27847;SDS011;15212;48.830;8.730;2024-01-25T09:03:33;31.00;;;4.10;;
27847;SDS011;15212;48.830;8.730;2024-01-25T09:06:02;34.35;;;4.08;;
27847;SDS011;15212;48.830;8.730;2024-01-25T09:08:31;43.78;;;8.60;;
27847;SDS011;15212;48.830;8.730;2024-01-25T09:11:00;32.98;;;4.55;;
27847;SDS011;15212;48.830;8.730;2024-01-25T09:13:28;32.78;;;4.30;;
27847;SDS011;15212;48.830;8.730;2024-01-25T09:15:58;26.60;;;3.85;;
27847;SDS011;15212;48.830;8.730;2024-01-25T09:18:26;38.70;;;6.65;;
27847;SDS011;15212;48.830;8.730;2024-01-25T09:20:54;41.33;;;8.35;;
27847;SDS011;15212;48.830;8.730;2024-01-25T09:23:23;30.40;;;6.62;;
27847;SDS011;15212;48.830;8.730;2024-01-25T09:25:51;19.77;;;5.05;;
27847;SDS011;15212;48.830;8.730;2024-01-25T09:28:19;27.10;;;3.77;;
27847;SDS011;15212;48.830;8.730;2024-01-25T09:30:48;33.20;;;3.87;;
27847;SDS011;15212;48.830;8.730;2024-01-25T09:33:16;24.65;;;3.62;;
27847;SDS011;15212;48.830;8.730;2024-01-25T09:35:45;34.23;;;5.15;;
27847;SDS011;15212;48.830;8.730;2024-01-25T09:38:13;39.18;;;4.53;;
27847;SDS011;15212;48.830;8.730;2024-01-25T09:40:42;28.35;;;4.35;;
27847;SDS011;15212;48.830;8.730;2024-01-25T09:43:11;27.65;;;4.08;;
27847;SDS011;15212;48.830;8.730;2024-01-25T09:45:39;36.60;;;5.87;;
27847;SDS011;15212;48.830;8.730;2024-01-25T09:48:09;29.63;;;3.90;;
27847;SDS011;15212;48.830;8.730;2024-01-25T09:50:37;27.50;;;3.90;;
27847;SDS011;15212;48.830;8.730;2024-01-25T09:53:05;29.52;;;3.77;;
27847;SDS011;15212;48.830;8.730;2024-01-25T09:55:36;22.48;;;3.33;;
27847;SDS011;15212;48.830;8.730;2024-01-25T09:58:08;28.62;;;4.10;;
27847;SDS011;15212;48.830;8.730;2024-01-25T10:00:37;20.05;;;3.98;;
27847;SDS011;15212;48.830;8.730;2024-01-25T10:03:06;20.00;;;3.33;;
27847;SDS011;15212;48.830;8.730;2024-01-25T10:05:36;31.62;;;4.22;;
27847;SDS011;15212;48.830;8.730;2024-01-25T10:08:11;20.05;;;3.37;;
27847;SDS011;15212;48.830;8.730;2024-01-25T10:10:38;40.90;;;4.50;;
27847;SDS011;15212;48.830;8.730;2024-01-25T10:13:10;28.83;;;4.00;;
27847;SDS011;15212;48.830;8.730;2024-01-25T10:15:39;26.33;;;3.55;;
27847;SDS011;15212;48.830;8.730;2024-01-25T10:18:09;26.45;;;3.47;;
27847;SDS011;15212;48.830;8.730;2024-01-25T10:20:39;23.77;;;3.90;;
27847;SDS011;15212;48.830;8.730;2024-01-25T10:23:09;29.90;;;3.27;;
27847;SDS011;15212;48.830;8.730;2024-01-25T10:25:38;25.40;;;3.75;;
27847;SDS011;15212;48.830;8.730;2024-01-25T10:28:06;27.20;;;4.17;;
27847;SDS011;15212;48.830;8.730;2024-01-25T10:30:35;21.68;;;2.90;;
27847;SDS011;15212;48.830;8.730;2024-01-25T10:33:04;25.92;;;3.25;;
27847;SDS011;15212;48.830;8.730;2024-01-25T10:35:33;17.23;;;3.12;;
27847;SDS011;15212;48.830;8.730;2024-01-25T10:38:03;24.25;;;3.65;;
27847;SDS011;15212;48.830;8.730;2024-01-25T10:40:32;15.58;;;2.83;;
27847;SDS011;15212;48.830;8.730;2024-01-25T10:43:00;26.40;;;3.35;;
27847;SDS011;15212;48.830;8.730;2024-01-25T10:45:29;20.90;;;3.33;;
27847;SDS011;15212;48.830;8.730;2024-01-25T10:47:58;21.42;;;3.83;;
27847;SDS011;15212;48.830;8.730;2024-01-25T10:53:17;18.95;;;3.33;;
27847;SDS011;15212;48.830;8.730;2024-01-25T10:55:46;20.23;;;3.33;;
27847;SDS011;15212;48.830;8.730;2024-01-25T10:58:15;16.90;;;2.77;;
27847;SDS011;15212;48.830;8.730;2024-01-25T11:00:56;23.55;;;3.75;;
27847;SDS011;15212;48.830;8.730;2024-01-25T11:03:28;24.23;;;3.67;;
27847;SDS011;15212;48.830;8.730;2024-01-25T11:06:06;17.50;;;2.90;;
27847;SDS011;15212;48.830;8.730;2024-01-25T11:08:38;16.40;;;2.60;;
27847;SDS011;15212;48.830;8.730;2024-01-25T11:11:14;16.62;;;3.15;;
27847;SDS011;15212;48.830;8.730;2024-01-25T11:13:40;18.65;;;3.22;;
27847;SDS011;15212;48.830;8.730;2024-01-25T11:18:47;17.12;;;2.92;;
27847;SDS011;15212;48.830;8.730;2024-01-25T11:21:44;18.65;;;2.70;;
27847;SDS011;15212;48.830;8.730;2024-01-25T11:24:15;15.78;;;2.75;;
27847;SDS011;15212;48.830;8.730;2024-01-25T11:26:55;16.25;;;2.62;;
27847;SDS011;15212;48.830;8.730;2024-01-25T11:29:23;98.95;;;7.80;;
27847;SDS011;15212;48.830;8.730;2024-01-25T11:31:53;19.75;;;2.95;;
27847;SDS011;15212;48.830;8.730;2024-01-25T11:34:22;13.15;;;2.50;;
27847;SDS011;15212;48.830;8.730;2024-01-25T11:36:50;15.08;;;2.22;;
27847;SDS011;15212;48.830;8.730;2024-01-25T11:39:19;18.15;;;2.45;;
27847;SDS011;15212;48.830;8.730;2024-01-25T11:41:47;14.07;;;2.77;;
27847;SDS011;15212;48.830;8.730;2024-01-25T11:44:18;25.68;;;2.30;;
27847;SDS011;15212;48.830;8.730;2024-01-25T11:46:48;13.25;;;2.00;;
27847;SDS011;15212;48.830;8.730;2024-01-25T11:49:17;13.58;;;2.87;;
27847;SDS011;15212;48.830;8.730;2024-01-25T11:51:45;16.82;;;2.45;;
27847;SDS011;15212;48.830;8.730;2024-01-25T11:54:13;16.35;;;2.40;;
27847;SDS011;15212;48.830;8.730;2024-01-25T11:56:42;15.68;;;2.42;;
27847;SDS011;15212;48.830;8.730;2024-01-25T11:59:11;17.98;;;2.62;;
27847;SDS011;15212;48.830;8.730;2024-01-25T12:01:40;13.30;;;2.67;;
27847;SDS011;15212;48.830;8.730;2024-01-25T12:04:08;17.52;;;2.77;;
27847;SDS011;15212;48.830;8.730;2024-01-25T12:06:37;11.40;;;2.47;;
27847;SDS011;15212;48.830;8.730;2024-01-25T12:09:06;19.50;;;2.45;;
27847;SDS011;15212;48.830;8.730;2024-01-25T12:11:36;12.03;;;2.52;;
27847;SDS011;15212;48.830;8.730;2024-01-25T12:14:08;17.45;;;2.77;;
27847;SDS011;15212;48.830;8.730;2024-01-25T12:16:39;14.80;;;2.62;;
27847;SDS011;15212;48.830;8.730;2024-01-25T12:19:08;12.20;;;2.22;;
27847;SDS011;15212;48.830;8.730;2024-01-25T12:21:36;18.35;;;2.33;;
27847;SDS011;15212;48.830;8.730;2024-01-25T12:24:05;17.48;;;2.85;;
27847;SDS011;15212;48.830;8.730;2024-01-25T12:26:36;16.97;;;2.22;;
27847;SDS011;15212;48.830;8.730;2024-01-25T12:29:04;12.28;;;2.27;;
27847;SDS011;15212;48.830;8.730;2024-01-25T12:31:34;14.80;;;1.95;;
27847;SDS011;15212;48.830;8.730;2024-01-25T12:34:02;13.72;;;2.27;;
27847;SDS011;15212;48.830;8.730;2024-01-25T12:36:32;13.50;;;2.10;;
27847;SDS011;15212;48.830;8.730;2024-01-25T12:39:00;11.12;;;2.15;;
27847;SDS011;15212;48.830;8.730;2024-01-25T12:41:29;19.85;;;2.42;;
27847;SDS011;15212;48.830;8.730;2024-01-25T12:43:57;19.40;;;2.47;;
27847;SDS011;15212;48.830;8.730;2024-01-25T12:46:26;10.53;;;2.00;;
27847;SDS011;15212;48.830;8.730;2024-01-25T12:48:54;15.35;;;1.90;;
27847;SDS011;15212;48.830;8.730;2024-01-25T12:51:24;19.95;;;2.92;;
27847;SDS011;15212;48.830;8.730;2024-01-25T12:53:54;15.83;;;2.52;;
27847;SDS011;15212;48.830;8.730;2024-01-25T12:56:22;9.30;;;2.20;;
27847;SDS011;15212;48.830;8.730;2024-01-25T12:58:51;19.50;;;2.62;;
27847;SDS011;15212;48.830;8.730;2024-01-25T13:01:19;13.53;;;2.40;;
27847;SDS011;15212;48.830;8.730;2024-01-25T13:03:48;11.70;;;2.25;;
27847;SDS011;15212;48.830;8.730;2024-01-25T13:06:16;13.13;;;2.52;;
27847;SDS011;15212;48.830;8.730;2024-01-25T13:08:44;16.27;;;2.47;;
27847;SDS011;15212;48.830;8.730;2024-01-25T13:11:13;15.48;;;2.45;;
27847;SDS011;15212;48.830;8.730;2024-01-25T13:13:41;15.78;;;2.12;;
27847;SDS011;15212;48.830;8.730;2024-01-25T13:16:11;11.22;;;2.62;;
27847;SDS011;15212;48.830;8.730;2024-01-25T13:18:39;10.55;;;2.20;;
27847;SDS011;15212;48.830;8.730;2024-01-25T13:21:07;7.17;;;1.60;;
27847;SDS011;15212;48.830;8.730;2024-01-25T13:23:36;18.67;;;2.35;;
27847;SDS011;15212;48.830;8.730;2024-01-25T13:26:04;14.93;;;2.10;;
27847;SDS011;15212;48.830;8.730;2024-01-25T13:28:33;12.90;;;2.10;;
27847;SDS011;15212;48.830;8.730;2024-01-25T13:31:01;15.80;;;2.35;;
27847;SDS011;15212;48.830;8.730;2024-01-25T13:33:30;13.68;;;2.45;;
27847;SDS011;15212;48.830;8.730;2024-01-25T13:35:58;14.10;;;2.50;;
27847;SDS011;15212;48.830;8.730;2024-01-25T13:38:26;16.55;;;2.80;;
27847;SDS011;15212;48.830;8.730;2024-01-25T13:40:55;20.55;;;2.72;;
27847;SDS011;15212;48.830;8.730;2024-01-25T13:43:23;10.95;;;2.33;;
27847;SDS011;15212;48.830;8.730;2024-01-25T13:45:52;13.20;;;2.98;;
27847;SDS011;15212;48.830;8.730;2024-01-25T13:48:21;11.88;;;2.75;;
27847;SDS011;15212;48.830;8.730;2024-01-25T13:50:49;12.68;;;2.67;;
27847;SDS011;15212;48.830;8.730;2024-01-25T13:53:17;17.12;;;2.22;;
27847;SDS011;15212;48.830;8.730;2024-01-25T13:55:46;16.65;;;2.40;;
27847;SDS011;15212;48.830;8.730;2024-01-25T13:58:14;15.83;;;2.62;;
27847;SDS011;15212;48.830;8.730;2024-01-25T14:00:43;30.82;;;8.70;;
27847;SDS011;15212;48.830;8.730;2024-01-25T14:03:11;11.55;;;2.55;;
27847;SDS011;15212;48.830;8.730;2024-01-25T14:05:42;11.20;;;2.50;;
27847;SDS011;15212;48.830;8.730;2024-01-25T14:08:11;15.85;;;2.40;;
27847;SDS011;15212;48.830;8.730;2024-01-25T14:10:39;14.95;;;2.12;;
27847;SDS011;15212;48.830;8.730;2024-01-25T14:13:07;21.60;;;2.50;;
27847;SDS011;15212;48.830;8.730;2024-01-25T14:15:36;14.90;;;2.58;;
27847;SDS011;15212;48.830;8.730;2024-01-25T14:18:04;10.60;;;2.52;;
27847;SDS011;15212;48.830;8.730;2024-01-25T14:20:33;12.85;;;2.65;;
27847;SDS011;15212;48.830;8.730;2024-01-25T14:23:02;17.37;;;2.45;;
27847;SDS011;15212;48.830;8.730;2024-01-25T14:25:31;11.20;;;2.08;;
27847;SDS011;15212;48.830;8.730;2024-01-25T14:27:59;12.15;;;2.42;;
27847;SDS011;15212;48.830;8.730;2024-01-25T14:30:28;10.45;;;2.02;;
27847;SDS011;15212;48.830;8.730;2024-01-25T14:32:58;15.83;;;2.90;;
27847;SDS011;15212;48.830;8.730;2024-01-25T14:35:26;13.80;;;2.45;;
27847;SDS011;15212;48.830;8.730;2024-01-25T14:37:55;18.15;;;3.47;;
27847;SDS011;15212;48.830;8.730;2024-01-25T14:40:24;14.43;;;3.62;;
27847;SDS011;15212;48.830;8.730;2024-01-25T14:42:52;10.68;;;2.00;;
27847;SDS011;15212;48.830;8.730;2024-01-25T14:45:20;15.30;;;2.42;;
27847;SDS011;15212;48.830;8.730;2024-01-25T14:47:49;12.28;;;2.02;;
27847;SDS011;15212;48.830;8.730;2024-01-25T14:50:17;11.85;;;3.50;;